Flight Track Log - Related Links

Times and Time Zones

All times are in EDT time to prevent confusion due to time zone crossing. See the GGN7280 flight status page for this flight to view local times or setup timezone preferences in your user account.

Time Position Orientation Groundspeed Altitude Reporting Facility
EDT Latitude Longitude Course Direction KTS MPH feet Rate Location/Type
Fri 09:51:52 AM 43.6500 -79.6167 75° East 20 23 600  Level Toronto Center
Fri 09:52:52 AM 43.6667 -79.5333 75° East 150 173 2,000 1,450 Climbing Toronto Center
Fri 09:53:52 AM 43.6667 -79.4667 90° East 180 207 3,500 1,300 Climbing Toronto Center
Fri 09:54:52 AM 43.6000 -79.4667 180° South 210 242 4,600 1,050 Climbing Toronto Center
Fri 09:55:52 AM 43.5833 -79.3833 105° East 220 253 5,600 1,050 Climbing Toronto Center
Fri 09:56:52 AM 43.5500 -79.3167 125° Southeast 220 253 6,700 1,000 Climbing Toronto Center
Fri 09:57:52 AM 43.5167 -79.2167 115° Southeast 230 265 7,600 850 Climbing Toronto Center
Fri 09:58:52 AM 43.5000 -79.1500 109° East 230 265 8,400 1,000 Climbing Toronto Center
Fri 09:59:52 AM 43.4833 -79.0667 105° East 220 253 9,600 1,000 Climbing Toronto Center
Fri 10:00:52 AM 43.4833 -78.9833 90° East 220 253 10,400 650 Climbing Toronto Center
Fri 10:01:52 AM 43.5000 -78.9000 75° East 230 265 10,900 550 Climbing Toronto Center
Fri 10:02:52 AM 43.5000 -78.8000 90° East 240 276 11,500 850 Climbing Toronto Center
Fri 10:03:52 AM 43.4833 -78.7167 105° East 240 276 12,600 1,150 Climbing Toronto Center
Fri 10:04:52 AM 43.4833 -78.6167 90° East 230 265 13,800 1,200 Climbing Toronto Center
Fri 10:05:52 AM 43.4667 -78.5333 105° East 230 265 15,000 1,100 Climbing Toronto Center
Fri 10:06:52 AM 43.4333 -78.4333 115° Southeast 230 265 16,000 950 Climbing Toronto Center
Fri 10:07:52 AM 43.4333 -78.3500 90° East 240 276 16,900 932 Climbing Toronto Center
Fri 10:08:35 AM 43.4403 -78.3131 75° East 236 272 17,600 808 Climbing Cleveland Center
Fri 10:09:36 AM 43.4281 -78.2164 100° East 242 278 18,300 750 Climbing Cleveland Center
Fri 10:10:35 AM 43.4156 -78.1225 100° East 242 278 19,100 857 Climbing Cleveland Center
Fri 10:11:35 AM 43.4031 -78.0258 100° East 247 284 20,000 800 Climbing Cleveland Center
Fri 10:12:35 AM 43.3906 -77.9322 100° East 247 284 20,700 500 Climbing Cleveland Center
Fri 10:13:35 AM 43.3758 -77.8328 101° East 252 290 21,000 149 Climbing Cleveland Center
Fri 10:14:36 AM 43.3608 -77.7336 102° East 258 297 21,000  Level Cleveland Center
Fri 10:15:35 AM 43.3481 -77.6342 100° East 258 297 21,000  Level Cleveland Center
Fri 10:16:35 AM 43.3369 -77.5319 98° East 258 297 21,000  Level Cleveland Center
Fri 10:17:36 AM 43.3217 -77.4300 102° East 258 297 21,000  Level Cleveland Center
Fri 10:18:35 AM 43.3044 -77.3281 103° East 258 297 21,000  Level Cleveland Center
Fri 10:19:36 AM 43.2911 -77.2261 100° East 258 297 21,000  Level Cleveland Center
Fri 10:21:54 AM 43.2594 -77.0025 101° East 260 299 21,000  Level Boston Center
Fri 10:22:54 AM 43.2447 -76.9044 102° East 260 299 21,000  Level Boston Center
Fri 10:23:52 AM 43.2333 -76.7500 96° East 270 311 21,000  Level Toronto Center
Fri 10:24:52 AM 43.2000 -76.6667 119° Southeast 270 311 21,000  Level Toronto Center
Fri 10:25:52 AM 43.1833 -76.5667 103° East 270 311 21,000  Level Toronto Center
Fri 10:26:52 AM 43.1667 -76.4500 101° East 270 311 21,000  Level Toronto Center
Fri 10:27:52 AM 43.1500 -76.3667 105° East 270 311 21,000  Level Toronto Center
Fri 10:28:52 AM 43.1500 -76.2500 90° East 270 311 21,000  Level Toronto Center
Fri 10:30:06 AM 43.1372 -76.1819 104° East 260 299 21,000 -403 Level Boston Center
Fri 10:31:06 AM 43.1183 -76.0586 102° East 265 305 20,100 -1,000 Descending Boston Center
Fri 10:32:06 AM 43.1031 -75.9494 101° East 272 313 19,000 -1,050 Descending Boston Center
Fri 10:33:06 AM 43.0853 -75.8406 103° East 278 320 18,000 -950 Descending Boston Center
Fri 10:34:06 AM 43.0678 -75.7342 103° East 283 326 17,100 -850 Descending Boston Center
Fri 10:35:06 AM 43.0519 -75.6283 102° East 283 326 16,300 -800 Descending Boston Center
Fri 10:36:06 AM 43.0342 -75.5194 103° East 283 326 15,500 -850 Descending Boston Center
Fri 10:37:06 AM 43.0181 -75.4136 102° East 283 326 14,600 -900 Descending Boston Center
Fri 10:38:06 AM 43.0000 -75.3103 103° East 283 326 13,700 -950 Descending Boston Center
Fri 10:39:06 AM 42.9858 -75.2047 100° East 283 326 12,700 -900 Descending Boston Center
Fri 10:40:06 AM 42.9675 -75.0989 103° East 278 320 11,900 -800 Descending Boston Center
Fri 10:41:06 AM 42.9511 -74.9961 102° East 278 320 11,100 -450 Descending Boston Center
Fri 10:42:06 AM 42.9325 -74.8961 104° East 278 320 11,000 -50 Descending Boston Center
Fri 10:43:06 AM 42.9175 -74.8131 104° East 264 304 11,000  Level Boston Center
Fri 10:44:06 AM 42.9011 -74.7047 102° East 255 293 11,000  Level Boston Center
Fri 10:45:05 AM 42.8839 -74.6164 105° East 257 296 11,000 50 Level Boston Center
Fri 10:46:06 AM 42.8669 -74.5167 103° East 260 299 11,100 -347 Climbing Boston Center
Fri 10:47:06 AM 42.8542 -74.4283 101° East 260 299 10,300 -1,250 Descending Boston Center
Fri 10:48:06 AM 42.8350 -74.3172 103° East 266 306 8,600 -1,500 Descending Boston Center
Fri 10:49:06 AM 42.8219 -74.2319 102° East 261 300 7,300 -1,200 Descending Boston Center
Fri 10:50:06 AM 42.7731 -74.1514 130° Southeast 244 281 6,200 -950 Descending Boston Center
Fri 10:51:06 AM 42.7300 -74.0964 137° Southeast 244 281 5,400 -800 Descending Boston Center
Fri 10:52:06 AM 42.6767 -74.0414 143° Southeast 229 264 4,600 -650 Descending Boston Center
Fri 10:53:06 AM 42.6442 -73.9869 129° Southeast 210 242 4,100 -650 Descending Boston Center
Fri 10:54:06 AM 42.6450 -73.9275 89° East 181 208 3,300 -1,033 Descending Boston Center
Fri 10:55:37 AM 42.6836 -73.8297 62° Northeast 159 183 1,500 -1,029 Descending Boston Center
Fri 10:56:26 AM 42.7111 -73.8078 30° Northeast 140 161 900 -735 Descending Boston Center
Fri 10:59:00 AM 42.7333 -73.8000 North  Level FlightAware

Login

Don't have an account? Register now (free) for customized features, flight alerts, and more!